| time (UTC) | temp C | wind direction | speed KPH | gust KPH | rain 1hr cm | rain 24hr cm | rain mn cm | humidity % | barometer mb |
| 20260506205030 | 15 | 146 | 0.0 | 0.0 | 0.08 | 0.33 | 0.33 | 95 | 1005.3 |
| 20260506204527 | 15 | 129 | 0.0 | 0.0 | 0.08 | 0.33 | 0.33 | 95 | 1005.4 |
| 20260506204029 | 15 | 221 | 0.0 | 0.0 | 0.10 | 0.33 | 0.33 | 95 | 1005.6 |
| 20260506203526 | 15 | 153 | 0.0 | 0.0 | 0.10 | 0.33 | 0.33 | 95 | 1005.5 |
| 20260506203026 | 15 | 177 | 0.0 | 0.0 | 0.10 | 0.33 | 0.33 | 95 | 1005.5 |
| 20260506202526 | 15 | 224 | 0.0 | 0.0 | 0.08 | 0.30 | 0.30 | 95 | 1005.4 |
| 20260506202026 | 15 | 190 | 0.0 | 0.0 | 0.05 | 0.28 | 0.28 | 95 | 1005.5 |
| 20260506201525 | 15 | 160 | 0.0 | 0.0 | 0.05 | 0.28 | 0.28 | 95 | 1005.5 |
| 20260506201024 | 15 | 125 | 0.0 | 0.0 | 0.03 | 0.25 | 0.25 | 95 | 1005.5 |
| 20260506200529 | 15 | 194 | 0.0 | 0.0 | 0.05 | 0.25 | 0.25 | 95 | 1005.5 |
| 20260506200023 | 15 | 173 | 0.0 | 0.0 | 0.05 | 0.25 | 0.25 | 95 | 1005.6 |
| 20260506195523 | 15 | 207 | 0.0 | 0.0 | 0.05 | 0.25 | 0.25 | 95 | 1005.6 |
| 20260506195022 | 15 | 155 | 0.0 | 0.0 | 0.05 | 0.25 | 0.25 | 95 | 1005.7 |
| 20260506194522 | 15 | 144 | 0.0 | 0.0 | 0.05 | 0.25 | 0.25 | 95 | 1005.8 |
| 20260506194021 | 15 | 207 | 0.0 | 0.0 | 0.00 | 0.00 | 0.23 | 95 | 1005.8 |
| 20260506193521 | 15 | 229 | 0.0 | 0.0 | 0.03 | 0.23 | 0.23 | 95 | 1005.8 |
| 20260506193021 | 15 | 137 | 0.0 | 0.0 | 0.03 | 0.23 | 0.23 | 94 | 1005.8 |
| 20260506192526 | 15 | 117 | 0.0 | 0.0 | 0.05 | 0.23 | 0.23 | 94 | 1005.9 |
| 20260506192021 | 15 | 159 | 0.0 | 0.0 | 0.05 | 0.23 | 0.23 | 94 | 1005.9 |
| 20260506191520 | 15 | 145 | 0.0 | 0.0 | 0.08 | 0.23 | 0.23 | 94 | 1005.9 |
| 20260506191020 | 15 | 169 | 0.0 | 0.0 | 0.08 | 0.23 | 0.23 | 94 | 1005.9 |
| 20260506190520 | 15 | 159 | 0.0 | 0.0 | 0.05 | 0.20 | 0.20 | 94 | 1005.9 |
| 20260506190019 | 15 | 152 | 0.0 | 0.0 | 0.08 | 0.20 | 0.20 | 94 | 1006.0 |
| 20260506185518 | 15 | 201 | 0.0 | 0.0 | 0.08 | 0.20 | 0.20 | 94 | 1006.1 |
| 20260506185019 | 15 | 120 | 0.0 | 1.6 | 0.10 | 0.20 | 0.20 | 94 | 1006.2 |
| 20260506184517 | 15 | 188 | 0.0 | 1.6 | 0.10 | 0.20 | 0.20 | 94 | 1006.1 |
| 20260506184017 | 15 | 125 | 0.0 | 0.0 | 0.10 | 0.20 | 0.20 | 94 | 1006.4 |
| 20260506183517 | 15 | 166 | 0.0 | 0.0 | 0.13 | 0.20 | 0.20 | 94 | 1006.4 |
| 20260506183018 | 15 | 161 | 0.0 | 0.0 | 0.13 | 0.20 | 0.20 | 93 | 1006.6 |
| 20260506182516 | 15 | 155 | 0.0 | 0.0 | 0.13 | 0.18 | 0.18 | 93 | 1006.5 |
| 20260506182016 | 15 | 163 | 0.0 | 0.0 | 0.13 | 0.18 | 0.18 | 93 | 1006.5 |
| 20260506181516 | 15 | 210 | 0.0 | 0.0 | 0.10 | 0.15 | 0.15 | 93 | 1006.6 |
| 20260506181020 | 15 | 165 | 0.0 | 1.6 | 0.10 | 0.15 | 0.15 | 92 | 1006.4 |
| 20260506180516 | 15 | 165 | 0.0 | 1.6 | 0.10 | 0.15 | 0.15 | 92 | 1006.2 |
| 20260506180014 | 15 | 144 | 0.0 | 0.0 | 0.10 | 0.13 | 0.13 | 92 | 1006.4 |
| 20260506175513 | 15 | 183 | 0.0 | 0.0 | 0.13 | 0.13 | 0.13 | 92 | 1006.3 |
| 20260506175013 | 15 | 146 | 0.0 | 0.0 | 0.10 | 0.10 | 0.10 | 92 | 1006.3 |
| 20260506174512 | 15 | 181 | 0.0 | 0.0 | 0.10 | 0.10 | 0.10 | 91 | 1006.5 |
| 20260506174012 | 15 | 260 | 0.0 | 0.0 | 0.10 | 0.10 | 0.10 | 91 | 1006.7 |
| 20260506173512 | 15 | 173 | 0.0 | 0.0 | 0.08 | 0.08 | 0.08 | 91 | 1006.8 |
| 20260506173012 | 15 | 142 | 0.0 | 0.0 | 0.08 | 0.08 | 0.08 | 90 | 1007.0 |
| 20260506172510 | 15 | 188 | 0.0 | 0.0 | 0.05 | 0.05 | 0.05 | 90 | 1007.2 |
| 20260506172008 | 15 | 148 | 0.0 | 0.0 | 0.05 | 0.05 | 0.05 | 89 | 1007.3 |
| 20260506171510 | 16 | 176 | 0.0 | 0.0 | 0.05 | 0.05 | 0.05 | 88 | 1007.5 |
| 20260506171008 | 16 | 210 | 0.0 | 0.0 | 0.05 | 0.05 | 0.05 | 87 | 1007.5 |
| 20260506170507 | 16 | 214 | 0.0 | 0.0 | 0.05 | 0.05 | 0.05 | 86 | 1007.6 |
| 20260506170008 | 16 | 150 | 0.0 | 0.0 | 0.03 | 0.03 | 0.03 | 85 | 1007.6 |
| 20260506165508 | 17 | 166 | 0.0 | 0.0 | 0.00 | 0.00 | 0.00 | 84 | 1007.7 |
| 20260506165007 | 17 | 169 | 0.0 | 0.0 | 0.00 | 0.00 | 0.00 | 82 | 1007.8 |
| 20260506164507 | 17 | 224 | 0.0 | 0.0 | 0.00 | 0.00 | 0.00 | 82 | 1007.6 |
| 20260506164008 | 17 | 169 | 0.0 | 8.0 | 0.00 | 0.00 | 0.00 | 80 | 1007.6 |
| 20260506163506 | 17 | 173 | 0.0 | 8.0 | 0.00 | 0.00 | 0.00 | 80 | 1007.4 |
| 20260506163014 | 17 | 162 | 0.0 | 0.0 | 0.00 | 0.00 | 0.00 | 79 | 1007.5 |
| 20260506162508 | 18 | 162 | 0.0 | 0.0 | 0.00 | 0.00 | 0.00 | 78 | 1007.3 |
| 20260506162006 | 18 | 221 | 0.0 | 0.0 | 0.00 | 0.00 | 0.00 | 78 | 1007.4 |
| 20260506161504 | 18 | 204 | 0.0 | 3.2 | 0.00 | 0.00 | 0.00 | 76 | 1007.3 |
| 20260506161006 | 18 | 228 | 0.0 | 3.2 | 0.00 | 0.00 | 0.00 | 76 | 1007.4 |
| 20260506160507 | 18 | 235 | 0.0 | 1.6 | 0.00 | 0.00 | 0.00 | 76 | 1007.6 |
| 20260506160010 | 18 | 224 | 0.0 | 1.6 | 0.00 | 0.00 | 0.00 | 75 | 1007.6 |
| 20260506155503 | 18 | 174 | 0.0 | 0.0 | 0.00 | 0.00 | 0.00 | 75 | 1007.7 |
| 20260506155005 | 18 | 211 | 0.0 | 1.6 | 0.00 | 0.00 | 0.00 | 75 | 1007.9 |
| 20260506154504 | 18 | 139 | 0.0 | 3.2 | 0.00 | 0.00 | 0.00 | 75 | 1007.9 |
| 20260506154008 | 18 | 201 | 0.0 | 11.3 | 0.00 | 0.00 | 0.00 | 75 | 1008.0 |
| 20260506153503 | 18 | 150 | 0.0 | 11.3 | 0.00 | 0.00 | 0.00 | 73 | 1007.9 |
| 20260506153003 | 19 | 226 | 0.0 | 0.0 | 0.00 | 0.00 | 0.00 | 74 | 1007.7 |
| 20260506152504 | 19 | 203 | 0.0 | 0.0 | 0.00 | 0.00 | 0.00 | 74 | 1007.7 |
| 20260506152002 | 19 | 132 | 0.0 | 9.7 | 0.00 | 0.00 | 0.00 | 73 | 1007.7 |
| 20260506151501 | 19 | 113 | 0.0 | 1.6 | 0.00 | 0.00 | 0.00 | 74 | 1007.7 |
| 20260506151001 | 19 | 161 | 0.0 | 0.0 | 0.00 | 0.00 | 0.00 | 73 | 1007.7 |
| 20260506150501 | 19 | 201 | 0.0 | 4.8 | 0.00 | 0.00 | 0.00 | 74 | 1007.8 |
| 20260506150201 | 19 | 205 | 0.0 | 4.8 | 0.00 | 0.00 | 0.00 | 73 | 1007.7 |
| 20260506145600 | 19 | 187 | 0.0 | 6.4 | 0.00 | 0.00 | 0.00 | 72 | 1007.8 |
| 20260506145100 | 19 | 111 | 0.0 | 6.4 | 0.00 | 0.00 | 0.00 | 73 | 1007.7 |
| 20260506144559 | 19 | 158 | 0.0 | 1.6 | 0.00 | 0.00 | 0.00 | 73 | 1007.7 |
| 20260506144058 | 19 | 177 | 0.0 | 6.4 | 0.00 | 0.00 | 0.00 | 74 | 1007.9 |
| 20260506143558 | 19 | 207 | 0.0 | 9.7 | 0.00 | 0.00 | 0.00 | 74 | 1007.9 |
| 20260506143106 | 19 | 155 | 0.0 | 0.0 | 0.00 | 0.00 | 0.00 | 74 | 1008.0 |
| 20260506142557 | 19 | 181 | 0.0 | 11.3 | 0.00 | 0.00 | 0.00 | 74 | 1008.0 |
| 20260506142057 | 19 | 152 | 0.0 | 11.3 | 0.00 | 0.00 | 0.00 | 75 | 1008.0 |
| 20260506141556 | 18 | 157 | 0.0 | 1.6 | 0.00 | 0.00 | 0.00 | 75 | 1008.0 |
| 20260506141057 | 18 | 152 | 0.0 | 0.0 | 0.00 | 0.00 | 0.00 | 76 | 1008.0 |
| 20260506140553 | 18 | 212 | 0.0 | 0.0 | 0.00 | 0.00 | 0.00 | 76 | 1008.1 |
| 20260506140057 | 18 | 176 | 0.0 | 0.0 | 0.00 | 0.00 | 0.00 | 77 | 1008.1 |
| 20260506135552 | 18 | 225 | 0.0 | 0.0 | 0.00 | 0.00 | 0.00 | 77 | 1008.2 |
| 20260506135051 | 18 | 217 | 0.0 | 1.6 | 0.00 | 0.00 | 0.00 | 78 | 1008.2 |
| 20260506134551 | 18 | 214 | 0.0 | 1.6 | 0.00 | 0.00 | 0.00 | 78 | 1007.9 |
| 20260506134052 | 18 | 145 | 0.0 | 1.6 | 0.00 | 0.00 | 0.00 | 78 | 1008.0 |
| 20260506133551 | 18 | 131 | 0.0 | 1.6 | 0.00 | 0.00 | 0.00 | 78 | 1007.8 |
| 20260506133049 | 18 | 103 | 0.0 | 0.0 | 0.00 | 0.00 | 0.00 | 79 | 1007.8 |
| 20260506132548 | 18 | 133 | 0.0 | 0.0 | 0.00 | 0.00 | 0.00 | 80 | 1008.0 |
| 20260506132046 | 17 | 215 | 0.0 | 0.0 | 0.00 | 0.00 | 0.00 | 81 | 1008.0 |
| 20260506131546 | 17 | 135 | 0.0 | 0.0 | 0.00 | 0.00 | 0.00 | 81 | 1008.2 |
| 20260506131044 | 17 | 132 | 0.0 | 0.0 | 0.00 | 0.00 | 0.00 | 82 | 1008.1 |
| 20260506130543 | 17 | 245 | 0.0 | 0.0 | 0.00 | 0.00 | 0.00 | 82 | 1008.1 |
| 20260506130042 | 17 | 236 | 0.0 | 0.0 | 0.00 | 0.00 | 0.00 | 83 | 1008.1 |
| 20260506125544 | 16 | 221 | 0.0 | 0.0 | 0.00 | 0.00 | 0.00 | 83 | 1008.2 |
| 20260506125045 | 16 | 225 | 0.0 | 0.0 | 0.00 | 0.00 | 0.00 | 84 | 1008.3 |
| 20260506124540 | 16 | 221 | 0.0 | 0.0 | 0.00 | 0.00 | 0.00 | 84 | 1008.4 |
| 20260506124039 | 16 | 217 | 0.0 | 0.0 | 0.00 | 0.00 | 0.00 | 83 | 1008.8 |
| 20260506123538 | 16 | 160 | 0.0 | 0.0 | 0.00 | 0.00 | 0.00 | 84 | 1008.7 |
| 20260506123038 | 16 | 86 | 0.0 | 0.0 | 0.00 | 0.00 | 0.00 | 84 | 1008.8 |
| 20260506122538 | 16 | 211 | 0.0 | 0.0 | 0.00 | 0.00 | 0.00 | 84 | 1008.8 |
| 20260506122038 | 16 | 152 | 0.0 | 0.0 | 0.00 | 0.00 | 0.00 | 84 | 1008.7 |
| 20260506121541 | 16 | 218 | 0.0 | 0.0 | 0.00 | 0.00 | 0.00 | 84 | 1008.6 |
| 20260506121036 | 16 | 198 | 0.0 | 0.0 | 0.00 | 0.00 | 0.00 | 85 | 1008.8 |
| 20260506120537 | 16 | 228 | 0.0 | 0.0 | 0.00 | 0.00 | 0.00 | 85 | 1008.6 |
| 20260506120037 | 15 | 194 | 0.0 | 0.0 | 0.00 | 0.00 | 0.00 | 86 | 1008.7 |
| 20260506115535 | 15 | 191 | 0.0 | 0.0 | 0.00 | 0.00 | 0.00 | 86 | 1008.6 |
| 20260506115035 | 15 | 146 | 0.0 | 0.0 | 0.00 | 0.00 | 0.00 | 86 | 1008.7 |
| 20260506114542 | 15 | 229 | 0.0 | 0.0 | 0.00 | 0.00 | 0.00 | 87 | 1008.6 |
| 20260506114035 | 15 | 217 | 0.0 | 0.0 | 0.00 | 0.00 | 0.00 | 87 | 1008.8 |
| 20260506113537 | 15 | 146 | 0.0 | 0.0 | 0.00 | 0.00 | 0.00 | 87 | 1008.7 |
| 20260506113035 | 15 | 143 | 0.0 | 0.0 | 0.00 | 0.00 | 0.00 | 87 | 1008.6 |
| 20260506112534 | 15 | 152 | 0.0 | 0.0 | 0.00 | 0.00 | 0.00 | 88 | 1008.6 |
| 20260506112037 | 15 | 191 | 0.0 | 0.0 | 0.00 | 0.00 | 0.00 | 88 | 1008.5 |
| 20260506111538 | 15 | 214 | 0.0 | 0.0 | 0.00 | 0.00 | 0.00 | 88 | 1008.8 |
| 20260506111034 | 15 | 169 | 0.0 | 0.0 | 0.00 | 0.00 | 0.00 | 88 | 1008.9 |
| 20260506110534 | 14 | 129 | 0.0 | 0.0 | 0.00 | 0.00 | 0.00 | 89 | 1009.0 |
| 20260506110034 | 14 | 203 | 0.0 | 6.4 | 0.00 | 0.00 | 0.00 | 89 | 1009.0 |
| 20260506105533 | 14 | 238 | 0.0 | 6.4 | 0.00 | 0.00 | 0.00 | 89 | 1008.9 |
| 20260506105032 | 14 | 215 | 0.0 | 0.0 | 0.00 | 0.00 | 0.00 | 89 | 1008.8 |
| 20260506104533 | 14 | 150 | 0.0 | 0.0 | 0.00 | 0.00 | 0.00 | 89 | 1008.7 |
| 20260506104032 | 13 | 204 | 0.0 | 0.0 | 0.00 | 0.00 | 0.00 | 89 | 1008.9 |
| 20260506103532 | 13 | 219 | 0.0 | 0.0 | 0.00 | 0.00 | 0.00 | 89 | 1008.9 |
| 20260506103032 | 13 | 156 | 0.0 | 0.0 | 0.00 | 0.00 | 0.00 | 89 | 1008.7 |
| 20260506102531 | 13 | 203 | 0.0 | 0.0 | 0.00 | 0.00 | 0.00 | 89 | 1008.7 |
| 20260506102031 | 13 | 222 | 0.0 | 0.0 | 0.00 | 0.00 | 0.00 | 90 | 1008.6 |
| 20260506101534 | 13 | 141 | 0.0 | 0.0 | 0.00 | 0.00 | 0.00 | 89 | 1008.7 |
| 20260506101029 | 13 | 158 | 0.0 | 0.0 | 0.00 | 0.00 | 0.00 | 89 | 1008.6 |
| 20260506100532 | 13 | 145 | 0.0 | 0.0 | 0.00 | 0.00 | 0.00 | 89 | 1008.6 |
| 20260506100030 | 13 | 205 | 0.0 | 0.0 | 0.00 | 0.00 | 0.00 | 89 | 1008.6 |
| 20260506095529 | 13 | 145 | 0.0 | 0.0 | 0.00 | 0.00 | 0.00 | 89 | 1008.6 |
| 20260506095029 | 13 | 162 | 0.0 | 0.0 | 0.00 | 0.00 | 0.00 | 89 | 1008.6 |
| 20260506094529 | 13 | 204 | 0.0 | 0.0 | 0.00 | 0.00 | 0.00 | 88 | 1008.5 |
| 20260506094027 | 13 | 169 | 0.0 | 1.6 | 0.00 | 0.00 | 0.00 | 88 | 1008.5 |
| 20260506093527 | 13 | 180 | 0.0 | 1.6 | 0.00 | 0.00 | 0.00 | 88 | 1008.6 |
| 20260506093030 | 13 | 193 | 0.0 | 0.0 | 0.00 | 0.00 | 0.00 | 88 | 1008.5 |
| 20260506092527 | 14 | 146 | 0.0 | 0.0 | 0.00 | 0.00 | 0.00 | 88 | 1008.6 |
| 20260506092026 | 14 | 204 | 0.0 | 0.0 | 0.00 | 0.00 | 0.00 | 88 | 1008.6 |
| 20260506091526 | 14 | 160 | 0.0 | 0.0 | 0.00 | 0.00 | 0.00 | 88 | 1008.6 |
| 20260506091024 | 14 | 160 | 0.0 | 0.0 | 0.00 | 0.00 | 0.00 | 87 | 1008.7 |
| 20260506090524 | 14 | 155 | 0.0 | 0.0 | 0.00 | 0.00 | 0.00 | 87 | 1008.6 |
| 20260506090024 | 14 | 214 | 0.0 | 0.0 | 0.00 | 0.00 | 0.00 | 87 | 1008.7 |
| 20260506085524 | 14 | 139 | 0.0 | 0.0 | 0.00 | 0.00 | 0.00 | 87 | 1008.7 |
| 20260506085023 | 14 | 152 | 0.0 | 0.0 | 0.00 | 0.00 | 0.00 | 87 | 1008.7 |
| 20260506084523 | 14 | 212 | 0.0 | 0.0 | 0.00 | 0.00 | 0.00 | 87 | 1008.7 |
| 20260506084023 | 14 | 212 | 0.0 | 0.0 | 0.00 | 0.00 | 0.00 | 86 | 1008.7 |
| 20260506083522 | 14 | 158 | 0.0 | 0.0 | 0.00 | 0.00 | 0.00 | 86 | 1008.8 |
| 20260506083021 | 14 | 167 | 0.0 | 0.0 | 0.00 | 0.00 | 0.00 | 86 | 1008.7 |
| 20260506082521 | 14 | 214 | 0.0 | 0.0 | 0.00 | 0.00 | 0.00 | 86 | 1008.8 |
| 20260506082021 | 14 | 228 | 0.0 | 0.0 | 0.00 | 0.00 | 0.00 | 86 | 1008.7 |
| 20260506081520 | 14 | 153 | 0.0 | 4.8 | 0.00 | 0.00 | 0.00 | 86 | 1008.6 |
| 20260506081020 | 14 | 108 | 0.0 | 4.8 | 0.00 | 0.00 | 0.00 | 86 | 1008.6 |
| 20260506080520 | 14 | 163 | 0.0 | 0.0 | 0.00 | 0.00 | 0.00 | 86 | 1008.6 |
| 20260506073519 | 15 | 234 | 0.0 | 0.0 | 0.00 | 0.00 | 0.00 | 85 | 1008.7 |
| 20260506073018 | 15 | 150 | 0.0 | 0.0 | 0.00 | 0.00 | 0.00 | 85 | 1008.6 |
| 20260506072517 | 15 | 194 | 0.0 | 1.6 | 0.00 | 0.00 | 0.00 | 84 | 1008.7 |
| 20260506072017 | 15 | 207 | 0.0 | 8.0 | 0.00 | 0.00 | 0.00 | 84 | 1008.7 |
| 20260506071515 | 15 | 201 | 0.0 | 0.0 | 0.00 | 0.00 | 0.00 | 84 | 1008.8 |
| 20260506071017 | 15 | 205 | 0.0 | 0.0 | 0.00 | 0.00 | 0.00 | 84 | 1008.7 |
| 20260506070514 | 15 | 203 | 0.0 | 0.0 | 0.00 | 0.00 | 0.00 | 84 | 1008.8 |
| 20260506062516 | 15 | 101 | 0.0 | 3.2 | 0.00 | 0.00 | 0.00 | 82 | 1008.5 |
| 20260506062011 | 15 | 176 | 0.0 | 0.0 | 0.00 | 0.00 | 0.00 | 82 | 1008.5 |
| 20260506061515 | 15 | 160 | 0.0 | 0.0 | 0.00 | 0.00 | 0.00 | 82 | 1008.5 |
| 20260506061009 | 15 | 197 | 0.0 | 3.2 | 0.00 | 0.00 | 0.00 | 81 | 1008.6 |
| 20260506060509 | 15 | 160 | 0.0 | 6.4 | 0.00 | 0.00 | 0.00 | 81 | 1008.5 |
| 20260506051100 | 16 | 211 | 0.0 | 11.3 | 0.00 | 0.00 | 0.00 | 79 | 1008.9 |
| 20260506050600 | 16 | 193 | 0.0 | 11.3 | 0.00 | 0.00 | 0.00 | 79 | 1008.8 |
| 20260506045058 | 16 | 165 | 0.0 | 6.4 | 0.00 | 0.00 | 0.00 | 78 | 1008.9 |
| 20260506044558 | 16 | 183 | 0.0 | 0.0 | 0.00 | 0.00 | 0.00 | 78 | 1008.9 |
| 20260506044056 | 16 | 222 | 0.0 | 4.8 | 0.00 | 0.00 | 0.00 | 77 | 1009.0 |
| 20260506043556 | 16 | 207 | 0.0 | 14.5 | 0.00 | 0.00 | 0.00 | 77 | 1008.9 |
| 20260506043056 | 16 | 203 | 0.0 | 14.5 | 0.00 | 0.00 | 0.00 | 77 | 1008.9 |
| 20260506042556 | 16 | 138 | 0.0 | 0.0 | 0.00 | 0.00 | 0.00 | 76 | 1008.9 |
| 20260506042055 | 17 | 191 | 0.0 | 0.0 | 0.00 | 0.00 | 0.00 | 76 | 1008.9 |
| 20260506041556 | 17 | 98 | 0.0 | 8.0 | 0.00 | 0.00 | 0.00 | 75 | 1008.9 |
| 20260506041153 | 17 | 232 | 0.0 | 8.0 | 0.00 | 0.00 | 0.00 | 75 | 1008.9 |
| 20260506040552 | 17 | 117 | 0.0 | 0.0 | 0.00 | 0.00 | 0.00 | 74 | 1008.8 |
| 20260506040100 | 17 | 165 | 0.0 | 6.4 | 0.00 | 0.00 | 0.00 | 74 | 1008.8 |
| 20260506035551 | 17 | 139 | 0.0 | 6.4 | 0.00 | 0.00 | 0.00 | 74 | 1008.9 |
| 20260506035051 | 17 | 184 | 0.0 | 6.4 | 0.00 | 0.00 | 0.00 | 73 | 1008.8 |
| 20260506034605 | 17 | 163 | 0.0 | 4.8 | 0.00 | 0.00 | 0.00 | 73 | 1008.9 |
| 20260506034051 | 17 | 217 | 0.0 | 4.8 | 0.00 | 0.00 | 0.00 | 72 | 1008.8 |
| 20260506033550 | 17 | 191 | 0.0 | 11.3 | 0.00 | 0.00 | 0.00 | 72 | 1008.9 |
| 20260506033051 | 17 | 228 | 0.0 | 11.3 | 0.00 | 0.00 | 0.00 | 72 | 1008.9 |
| 20260506032551 | 17 | 211 | 0.0 | 3.2 | 0.00 | 0.00 | 0.00 | 72 | 1008.8 |
| 20260506032053 | 17 | 157 | 0.0 | 3.2 | 0.00 | 0.00 | 0.00 | 72 | 1008.8 |
| 20260506031559 | 17 | 79 | 0.0 | 4.8 | 0.00 | 0.00 | 0.00 | 72 | 1008.8 |
| 20260506031054 | 17 | 203 | 0.0 | 8.0 | 0.00 | 0.00 | 0.00 | 71 | 1008.8 |
| 20260506030549 | 17 | 139 | 0.0 | 8.0 | 0.00 | 0.00 | 0.00 | 71 | 1008.8 |
| 20260506030049 | 17 | 200 | 0.0 | 3.2 | 0.00 | 0.00 | 0.00 | 71 | 1008.7 |
| 20260506025549 | 17 | 210 | 0.0 | 11.3 | 0.00 | 0.00 | 0.00 | 71 | 1008.7 |
| 20260506025049 | 17 | 218 | 0.0 | 11.3 | 0.00 | 0.00 | 0.00 | 71 | 1008.7 |
| 20260506024551 | 17 | 218 | 0.0 | 6.4 | 0.00 | 0.00 | 0.00 | 71 | 1008.6 |
| 20260506024049 | 17 | 205 | 0.0 | 9.7 | 0.00 | 0.00 | 0.00 | 71 | 1008.7 |
| 20260506023549 | 17 | 155 | 0.0 | 9.7 | 0.00 | 0.00 | 0.00 | 71 | 1008.7 |
| 20260506023048 | 17 | 208 | 0.0 | 11.3 | 0.00 | 0.00 | 0.00 | 71 | 1008.6 |
| 20260506022548 | 17 | 200 | 0.0 | 11.3 | 0.00 | 0.00 | 0.00 | 71 | 1008.7 |
| 20260506022048 | 17 | 135 | 0.0 | 6.4 | 0.00 | 0.00 | 0.00 | 70 | 1008.6 |
| 20260506021647 | 17 | 224 | 0.0 | 3.2 | 0.00 | 0.00 | 0.00 | 70 | 1008.7 |
| 20260506021047 | 17 | 166 | 0.0 | 3.2 | 0.00 | 0.00 | 0.00 | 70 | 1008.7 |
| 20260506020546 | 17 | 162 | 0.0 | 0.0 | 0.00 | 0.00 | 0.00 | 70 | 1008.7 |
| 20260506020046 | 17 | 221 | 0.0 | 0.0 | 0.00 | 0.00 | 0.00 | 70 | 1008.7 |
| 20260506015548 | 17 | 216 | 0.0 | 0.0 | 0.00 | 0.00 | 0.00 | 70 | 1008.6 |
| 20260506015047 | 17 | 163 | 0.0 | 0.0 | 0.00 | 0.00 | 0.00 | 69 | 1008.7 |
| 20260506014546 | 17 | 162 | 0.0 | 0.0 | 0.00 | 0.00 | 0.00 | 69 | 1008.6 |
| 20260506014048 | 17 | 148 | 0.0 | 3.2 | 0.00 | 0.00 | 0.00 | 69 | 1008.5 |
| 20260506013546 | 17 | 210 | 0.0 | 4.8 | 0.00 | 0.00 | 0.00 | 68 | 1008.5 |
| 20260506013047 | 17 | 148 | 0.0 | 4.8 | 0.00 | 0.00 | 0.00 | 68 | 1008.3 |
| 20260506012545 | 17 | 198 | 0.0 | 9.7 | 0.00 | 0.00 | 0.00 | 68 | 1008.3 |
| 20260506012046 | 17 | 166 | 0.0 | 9.7 | 0.00 | 0.00 | 0.00 | 67 | 1008.3 |
| 20260506011544 | 17 | 250 | 0.0 | 8.0 | 0.00 | 0.00 | 0.00 | 67 | 1008.3 |
| 20260506011044 | 17 | 188 | 0.0 | 8.0 | 0.00 | 0.00 | 0.00 | 67 | 1008.1 |
| 20260506010544 | 17 | 159 | 0.0 | 8.0 | 0.00 | 0.00 | 0.00 | 67 | 1008.1 |
| 20260506010045 | 17 | 142 | 0.0 | 6.4 | 0.00 | 0.00 | 0.00 | 66 | 1008.0 |
| 20260506005545 | 18 | 150 | 0.0 | 4.8 | 0.00 | 0.00 | 0.00 | 66 | 1007.9 |
| 20260506005044 | 18 | 210 | 0.0 | 4.8 | 0.00 | 0.00 | 0.00 | 66 | 1007.9 |
| 20260506004548 | 18 | 134 | 0.0 | 4.8 | 0.00 | 0.00 | 0.00 | 66 | 1007.9 |
| 20260506004044 | 18 | 151 | 0.0 | 3.2 | 0.00 | 0.00 | 0.00 | 66 | 1007.8 |
| 20260506003544 | 18 | 210 | 0.0 | 3.2 | 0.00 | 0.00 | 0.00 | 65 | 1007.7 |
| 20260506003044 | 18 | 143 | 0.0 | 0.0 | 0.00 | 0.00 | 0.00 | 65 | 1007.6 |
| 20260506002542 | 18 | 198 | 0.0 | 6.4 | 0.00 | 0.00 | 0.00 | 65 | 1007.4 |
| 20260506002043 | 18 | 266 | 0.0 | 6.4 | 0.00 | 0.00 | 0.00 | 64 | 1007.3 |
| 20260506001542 | 18 | 135 | 0.0 | 8.0 | 0.00 | 0.00 | 0.00 | 64 | 1007.2 |
| 20260506001042 | 18 | 241 | 0.0 | 12.9 | 0.00 | 0.00 | 0.00 | 64 | 1007.2 |
| 20260506000544 | 18 | 151 | 0.0 | 14.5 | 0.00 | 0.00 | 0.00 | 64 | 1007.1 |
| 20260506000042 | 18 | 163 | 0.0 | 16.1 | 0.00 | 0.00 | 0.00 | 64 | 1007.0 |
| 20260505235542 | 18 | 222 | 0.0 | 16.1 | 0.00 | 0.00 | 0.00 | 64 | 1007.1 |
| 20260505235042 | 19 | 156 | 0.0 | 3.2 | 0.00 | 0.00 | 0.00 | 64 | 1007.0 |
| 20260505234548 | 19 | 169 | 0.0 | 8.0 | 0.00 | 0.00 | 0.00 | 63 | 1006.9 |
| 20260505234042 | 19 | 139 | 0.0 | 0.0 | 0.00 | 0.00 | 0.00 | 63 | 1007.0 |
| 20260505233540 | 19 | 217 | 0.0 | 9.7 | 0.00 | 0.00 | 0.00 | 63 | 1006.9 |
| 20260505233042 | 20 | 219 | 0.0 | 9.7 | 0.00 | 0.00 | 0.00 | 62 | 1006.8 |
| 20260505232540 | 20 | 200 | 0.0 | 9.7 | 0.00 | 0.00 | 0.00 | 62 | 1006.6 |
| 20260505232041 | 20 | 198 | 0.0 | 9.7 | 0.00 | 0.00 | 0.00 | 62 | 1006.7 |
| 20260505231547 | 20 | 167 | 0.0 | 3.2 | 0.00 | 0.00 | 0.00 | 62 | 1006.6 |
| 20260505231039 | 20 | 174 | 0.0 | 8.0 | 0.00 | 0.00 | 0.00 | 61 | 1006.6 |
| 20260505230538 | 20 | 191 | 0.0 | 8.0 | 0.00 | 0.00 | 0.00 | 61 | 1006.5 |
| 20260505230038 | 20 | 217 | 0.0 | 8.0 | 0.00 | 0.00 | 0.00 | 60 | 1006.4 |
| 20260505225538 | 20 | 197 | 0.0 | 11.3 | 0.00 | 0.00 | 0.00 | 60 | 1006.4 |
| 20260505225038 | 20 | 138 | 0.0 | 25.7 | 0.00 | 0.00 | 0.00 | 60 | 1006.3 |
| 20260505224537 | 21 | 135 | 1.6 | 25.7 | 0.00 | 0.00 | 0.00 | 59 | 1006.1 |
| 20260505224036 | 21 | 229 | 0.0 | 14.5 | 0.00 | 0.00 | 0.00 | 59 | 1006.0 |
| 20260505223536 | 21 | 197 | 0.0 | 16.1 | 0.00 | 0.00 | 0.00 | 58 | 1005.9 |
| 20260505223044 | 21 | 228 | 0.0 | 14.5 | 0.00 | 0.00 | 0.00 | 58 | 1005.9 |
| 20260505222536 | 21 | 195 | 1.6 | 14.5 | 0.00 | 0.00 | 0.00 | 57 | 1006.0 |
| 20260505222036 | 22 | 164 | 0.0 | 11.3 | 0.00 | 0.00 | 0.00 | 56 | 1006.1 |
| 20260505221536 | 22 | 208 | 0.0 | 11.3 | 0.00 | 0.00 | 0.00 | 57 | 1006.3 |
| 20260505221034 | 22 | 189 | 0.0 | 12.9 | 0.00 | 0.00 | 0.00 | 56 | 1006.3 |
| 20260505220537 | 22 | 218 | 0.0 | 12.9 | 0.00 | 0.00 | 0.00 | 56 | 1006.3 |
| 20260505220040 | 22 | 205 | 0.0 | 9.7 | 0.00 | 0.00 | 0.00 | 55 | 1006.4 |
| 20260505215534 | 22 | 153 | 0.0 | 19.3 | 0.00 | 0.00 | 0.00 | 55 | 1006.2 |
| 20260505215034 | 22 | 180 | 0.0 | 19.3 | 0.00 | 0.00 | 0.00 | 54 | 1006.2 |
| 20260505214541 | 22 | 221 | 0.0 | 12.9 | 0.00 | 0.00 | 0.00 | 55 | 1006.2 |
| 20260505214034 | 22 | 179 | 1.6 | 12.9 | 0.00 | 0.00 | 0.00 | 55 | 1006.1 |
| 20260505213533 | 22 | 156 | 0.0 | 3.2 | 0.00 | 0.00 | 0.00 | 55 | 1006.1 |
| 20260505213035 | 22 | 193 | 0.0 | 8.0 | 0.00 | 0.00 | 0.00 | 55 | 1006.2 |
| 20260505212534 | 22 | 247 | 0.0 | 8.0 | 0.00 | 0.00 | 0.00 | 54 | 1006.1 |
| 20260505212033 | 22 | 171 | 0.0 | 14.5 | 0.00 | 0.00 | 0.00 | 55 | 1006.1 |
| 20260505211532 | 23 | 198 | 1.6 | 17.7 | 0.00 | 0.00 | 0.00 | 54 | 1006.2 |
| 20260505211033 | 23 | 183 | 0.0 | 12.9 | 0.00 | 0.00 | 0.00 | 53 | 1006.2 |
| 20260505210531 | 23 | 191 | 0.0 | 11.3 | 0.00 | 0.00 | 0.00 | 53 | 1006.3 |
| 20260505210032 | 23 | 155 | 0.0 | 11.3 | 0.00 | 0.00 | 0.00 | 52 | 1006.1 |
| 20260505205533 | 23 | 146 | 0.0 | 14.5 | 0.00 | 0.00 | 0.00 | 53 | 1006.1 |